Terminal Aerodrome Forecast
Issued by NWS

Home | Current Version | Previous Version | Text Only | Print | Product List | Glossary On
Versions: 1 2 3 4 5 6 7 8 9 10 11 12 13 14 15
000
FTUS46 KPDT 180300 AAA
TAFRDM
TAF AMD
KRDM 180310Z 1803/1824 28011KT P6SM BKN050 BKN100
     FM181200 15003KT P6SM SKC
     FM181800 33006KT P6SM SCT250=

USA.gov is the U.S. government's official web portal to all federal, state and local government web resources and services.